Time;durP1;ratioP1;P1;durP2;ratioP2;P2;SDS_P1;SDS_P2;PMS_P1;PMS_P2;Temp;Humidity;BMP_temperature;BMP_pressure;BME280_temperature;BME280_humidity;BME280_pressure;Samples;Min_cycle;Max_cycle;Signal;HPM_P1;HPM_P2
2023/03/15 00:00:11;;;;;;;9.65;3.97;;;;;;;6.71;46.19;98858.50;3170253;28;20115;-72
2023/03/15 00:01:45;;;;;;;14.52;3.80;;;;;;;6.76;46.22;98861.75;3158892;28;20519;-74
2023/03/15 00:03:16;;;;;;;8.38;3.80;;;;;;;6.68;46.35;98855.22;3170635;28;20056;-73
2023/03/15 00:04:48;;;;;;;9.55;4.00;;;;;;;6.75;46.39;98864.41;3170030;28;20539;-72
2023/03/15 00:06:20;;;;;;;8.18;3.85;;;;;;;6.73;46.53;98859.28;3164028;28;20051;-73
2023/03/15 00:07:52;;;;;;;10.48;4.30;;;;;;;6.74;46.57;98862.72;3168895;28;20063;-73
2023/03/15 00:09:24;;;;;;;10.13;3.80;;;;;;;6.74;46.71;98865.31;3170236;28;20400;-72
2023/03/15 00:10:56;;;;;;;7.32;3.35;;;;;;;6.74;46.72;98865.31;3170354;28;20093;-73
2023/03/15 00:12:30;;;;;;;7.60;3.47;;;;;;;6.66;47.16;98854.47;3170796;28;20105;-72
2023/03/15 00:14:02;;;;;;;6.75;3.42;;;;;;;6.69;47.16;98856.94;3166314;28;20061;-72
2023/03/15 00:15:33;;;;;;;8.55;3.70;;;;;;;5.63;47.28;98694.31;3170108;28;20051;-72
2023/03/15 00:17:05;;;;;;;9.80;4.05;;;;;;;6.65;47.34;98857.94;3170143;28;20135;-72
2023/03/15 00:18:36;;;;;;;10.70;3.30;;;;;;;6.59;47.23;98846.13;3169780;28;20074;-70
2023/03/15 00:20:10;;;;;;;7.93;4.15;;;;;;;6.56;47.26;98835.91;3170012;28;20058;-72
2023/03/15 00:21:42;;;;;;;11.10;3.42;;;;;;;6.63;47.51;98858.03;3164955;28;20566;-70
2023/03/15 00:23:14;;;;;;;9.95;4.05;;;;;;;6.56;47.65;98841.09;3169702;28;20059;-70
2023/03/15 00:24:46;;;;;;;11.05;4.30;;;;;;;6.60;47.77;98846.06;3170117;28;20079;-70
2023/03/15 00:26:18;;;;;;;7.35;3.35;;;;;;;6.03;47.73;98766.69;3169120;28;20097;-71
2023/03/15 00:27:51;;;;;;;6.55;3.38;;;;;;;6.60;47.92;98856.41;3169783;28;20108;-70
2023/03/15 00:29:23;;;;;;;7.07;3.67;;;;;;;5.51;48.31;98678.50;3170332;28;20105;-70
2023/03/15 00:31:06;;;;;;;10.10;4.55;;;;;;;6.50;48.42;98843.94;3169904;28;20043;-72
2023/03/15 00:32:36;;;;;;;10.25;3.88;;;;;;;6.33;48.70;98824.84;3169559;28;20052;-73
2023/03/15 00:34:08;;;;;;;12.00;3.88;;;;;;;6.40;49.10;98842.69;3169586;28;20072;-71
2023/03/15 00:35:42;;;;;;;9.50;4.55;;;;;;;6.17;49.42;98810.06;3168498;28;20060;-72
2023/03/15 00:37:12;;;;;;;6.97;3.85;;;;;;;6.35;49.30;98845.44;3159040;28;20067;-71
2023/03/15 00:38:44;;;;;;;9.82;3.60;;;;;;;6.36;49.33;98839.41;3169244;28;20043;-71
2023/03/15 00:40:17;;;;;;;11.15;3.45;;;;;;;6.34;49.38;98844.63;3169551;28;20071;-70
2023/03/15 00:41:48;;;;;;;8.57;3.78;;;;;;;6.29;49.33;98827.63;3167574;28;20059;-70
2023/03/15 00:43:22;;;;;;;9.57;3.97;;;;;;;6.32;49.74;98830.06;3170008;28;20055;-71
2023/03/15 00:44:55;;;;;;;12.60;4.70;;;;;;;6.27;49.87;98832.00;3169592;28;20105;-70
2023/03/15 00:46:27;;;;;;;10.13;4.05;;;;;;;6.19;49.84;98821.19;3168839;28;20134;-70
2023/03/15 00:47:59;;;;;;;12.05;3.90;;;;;;;6.22;50.01;98827.06;3169695;28;20101;-71
2023/03/15 00:49:31;;;;;;;7.43;3.55;;;;;;;6.19;49.96;98822.00;3169672;28;20055;-71
2023/03/15 00:51:05;;;;;;;8.88;3.92;;;;;;;6.19;49.93;98814.25;3165307;28;20040;-71
2023/03/15 00:52:38;;;;;;;10.88;3.67;;;;;;;6.17;49.82;98816.06;3157175;28;20051;-70
2023/03/15 00:54:12;;;;;;;10.25;4.43;;;;;;;6.27;49.69;98822.53;3169850;28;20062;-69
2023/03/15 00:55:44;;;;;;;6.65;3.28;;;;;;;6.26;49.67;98820.81;3169761;28;20051;-70
2023/03/15 00:57:16;;;;;;;9.32;4.10;;;;;;;6.28;49.82;98825.94;3169641;28;20138;-70
2023/03/15 00:58:51;;;;;;;11.32;3.35;;;;;;;5.68;49.94;98723.38;3169615;28;20127;-70
2023/03/15 01:00:24;;;;;;;11.73;5.60;;;;;;;6.28;49.90;98820.78;3169824;28;20056;-70
2023/03/15 01:01:54;;;;;;;7.78;3.60;;;;;;;6.23;49.97;98805.44;3167106;28;20126;-70
2023/03/15 01:03:27;;;;;;;13.68;4.20;;;;;;;6.30;49.92;98817.22;3169479;28;20047;-71
2023/03/15 01:04:58;;;;;;;9.77;3.95;;;;;;;6.32;49.76;98811.97;3169351;28;20523;-71
2023/03/15 01:06:30;;;;;;;9.30;3.47;;;;;;;6.25;49.85;98802.81;3161892;27;20105;-70
2023/03/15 01:08:03;;;;;;;10.00;4.18;;;;;;;6.31;49.84;98808.56;3164795;28;20055;-70
2023/03/15 01:09:34;;;;;;;16.90;4.22;;;;;;;6.30;49.86;98808.59;3162525;28;20094;-70
2023/03/15 01:11:08;;;;;;;8.45;3.50;;;;;;;6.28;50.05;98802.69;3163270;28;20054;-70
2023/03/15 01:12:40;;;;;;;10.48;4.40;;;;;;;6.19;50.12;98791.00;3169698;28;20553;-70
2023/03/15 01:14:14;;;;;;;12.10;4.68;;;;;;;6.18;50.09;98786.72;3169308;28;20119;-71
2023/03/15 01:15:46;;;;;;;13.80;4.38;;;;;;;5.50;50.10;98684.53;3169107;28;20138;-71
2023/03/15 01:17:18;;;;;;;12.35;4.18;;;;;;;6.18;50.19;98794.47;3169172;28;20471;-70
2023/03/15 01:18:50;;;;;;;10.07;4.15;;;;;;;6.23;50.21;98800.28;3169339;28;20040;-70
2023/03/15 01:20:22;;;;;;;11.35;4.32;;;;;;;5.77;50.19;98731.59;3169702;28;20146;-71
2023/03/15 01:21:54;;;;;;;7.60;3.75;;;;;;;6.23;50.39;98805.44;3163568;28;20058;-73
2023/03/15 01:23:26;;;;;;;9.52;4.43;;;;;;;6.16;50.26;98791.13;3169367;28;20054;-69
2023/03/15 01:24:57;;;;;;;8.38;4.25;;;;;;;6.09;50.29;98779.34;3169629;28;20058;-72
2023/03/15 01:26:29;;;;;;;9.32;4.57;;;;;;;6.15;50.30;98792.88;3165122;28;20110;-71
2023/03/15 01:28:00;;;;;;;9.93;3.90;;;;;;;6.13;50.35;98794.69;3159766;28;20478;-70
2023/03/15 01:29:34;;;;;;;9.15;4.00;;;;;;;6.01;50.57;98776.28;3169327;28;20055;-71
2023/03/15 01:31:06;;;;;;;13.45;4.90;;;;;;;6.19;50.61;98797.91;3169411;28;20120;-71
2023/03/15 01:32:38;;;;;;;12.85;4.80;;;;;;;6.18;50.67;98798.78;3169427;28;20048;-70
2023/03/15 01:34:09;;;;;;;13.18;4.70;;;;;;;6.03;51.02;98774.44;3169309;28;20048;-70
2023/03/15 01:35:41;;;;;;;11.43;4.15;;;;;;;6.15;51.05;98792.00;3168120;28;20142;-70
2023/03/15 01:37:13;;;;;;;7.97;3.58;;;;;;;6.15;51.11;98787.72;3156650;28;20044;-70
2023/03/15 01:38:45;;;;;;;12.45;4.00;;;;;;;6.13;51.30;98781.75;3168855;28;20074;-71
2023/03/15 01:40:18;;;;;;;15.35;4.60;;;;;;;6.12;51.47;98780.09;3169082;28;20055;-72
2023/03/15 01:41:50;;;;;;;13.45;3.80;;;;;;;6.10;51.47;98787.06;3169402;28;20054;-71
2023/03/15 01:43:23;;;;;;;13.55;4.25;;;;;;;6.04;51.53;98766.66;3168657;28;20073;-71
2023/03/15 01:44:58;;;;;;;;;;;;;;;6.05;51.35;98789.00;3164114;28;20047;-72
2023/03/15 01:46:32;;;;;;;10.98;4.03;;;;;;;5.96;51.48;98771.28;3158147;28;20490;-71
2023/03/15 01:48:04;;;;;;;11.20;4.13;;;;;;;6.04;51.61;98779.56;3169330;28;20043;-72
2023/03/15 01:49:36;;;;;;;9.57;4.72;;;;;;;5.97;51.72;98774.72;3169350;28;20550;-71
2023/03/15 01:51:13;;;;;;;11.88;4.18;;;;;;;6.04;52.03;98786.50;3164533;28;20116;-71
2023/03/15 01:52:45;;;;;;;8.77;3.88;;;;;;;5.95;51.98;98779.97;3164023;28;20071;-72
2023/03/15 01:54:22;;;;;;;12.52;4.60;;;;;;;6.02;52.19;98783.97;3164099;28;20612;-72
2023/03/15 01:55:54;;;;;;;9.02;4.28;;;;;;;6.00;52.15;98783.16;3164342;28;20596;-72
2023/03/15 01:57:29;;;;;;;11.90;4.35;;;;;;;5.99;52.23;98789.25;3163563;28;20048;-71
2023/03/15 01:59:03;;;;;;;10.73;4.55;;;;;;;5.90;52.39;98779.28;3164183;28;20052;-69
2023/03/15 02:00:38;;;;;;;11.65;5.03;;;;;;;5.88;52.36;98786.25;3161845;28;20052;-70
2023/03/15 02:02:13;;;;;;;8.18;4.78;;;;;;;5.84;52.59;98771.78;3162292;28;20116;-69
2023/03/15 02:03:47;;;;;;;9.95;4.18;;;;;;;5.95;52.69;98787.72;3163917;28;20055;-70
2023/03/15 02:05:24;;;;;;;11.38;4.72;;;;;;;5.77;52.64;98757.44;3164145;28;20479;-69
2023/03/15 02:06:59;;;;;;;10.80;4.57;;;;;;;5.83;52.86;98772.72;3164030;28;20055;-71
2023/03/15 02:08:36;;;;;;;12.18;5.18;;;;;;;5.84;52.96;98784.72;3164293;28;20051;-70
2023/03/15 02:10:11;;;;;;;12.00;5.20;;;;;;;5.88;53.02;98781.91;3163783;28;20048;-71
2023/03/15 02:11:42;;;;;;;16.85;6.07;;;;;;;5.86;53.04;98788.91;3163782;28;20072;-70
2023/03/15 02:13:18;;;;;;;19.15;7.05;;;;;;;5.76;53.09;98763.53;3164031;28;20081;-70
2023/03/15 02:14:52;;;;;;;17.42;6.32;;;;;;;5.86;52.98;98775.16;3159633;28;20111;-70
2023/03/15 02:16:26;;;;;;;20.58;8.50;;;;;;;5.77;52.98;98772.94;3164241;28;20052;-70
2023/03/15 02:17:58;;;;;;;20.52;9.02;;;;;;;5.79;53.06;98784.06;3163439;28;20469;-70
2023/03/15 02:19:41;;;;;;;20.70;9.43;;;;;;;5.77;53.30;98775.53;3163784;28;20051;-70
2023/03/15 02:21:28;;;;;;;19.50;9.68;;;;;;;5.73;53.05;98779.97;3151842;28;20105;-70
2023/03/15 02:23:02;;;;;;;25.50;11.02;;;;;;;5.63;53.09;98758.03;3163403;28;20052;-70
2023/03/15 02:24:45;;;;;;;27.23;11.77;;;;;;;5.64;53.21;98768.28;3164038;28;20377;-69
2023/03/15 02:26:24;;;;;;;26.80;11.55;;;;;;;5.48;53.24;98746.59;3161345;28;20115;-70
2023/03/15 02:27:59;;;;;;;23.48;11.30;;;;;;;5.45;53.24;98747.56;3163680;28;20059;-70
2023/03/15 02:29:31;;;;;;;19.90;10.93;;;;;;;5.56;53.24;98769.50;3163768;28;20051;-70
2023/03/15 02:31:03;;;;;;;28.83;12.75;;;;;;;5.54;53.30;98772.16;3163370;28;20056;-70
2023/03/15 02:32:35;;;;;;;28.60;13.65;;;;;;;5.53;53.33;98767.91;3163868;28;20071;-70
2023/03/15 02:34:08;;;;;;;23.25;11.82;;;;;;;5.43;53.42;98757.09;3163857;28;20073;-70
2023/03/15 02:35:39;;;;;;;26.27;13.80;;;;;;;5.43;53.44;98756.25;3163630;28;20087;-70
2023/03/15 02:37:11;;;;;;;25.48;12.88;;;;;;;5.48;53.53;98762.09;3163754;28;20052;-70
2023/03/15 02:38:42;;;;;;;26.75;13.40;;;;;;;5.21;53.40;98725.34;3164026;28;20195;-70
2023/03/15 02:40:19;;;;;;;26.65;13.23;;;;;;;5.46;53.34;98763.88;3165983;28;20125;-70
2023/03/15 02:41:53;;;;;;;26.30;12.20;;;;;;;4.41;53.21;98607.28;3166035;28;20055;-71
2023/03/15 02:43:31;;;;;;;27.52;12.65;;;;;;;5.44;53.35;98768.25;3166120;28;20090;-70
2023/03/15 02:45:03;;;;;;;30.42;13.80;;;;;;;5.35;53.38;98755.72;3163373;28;20116;-70
2023/03/15 02:46:35;;;;;;;25.42;13.40;;;;;;;4.95;53.29;98698.00;3162807;28;20073;-69
2023/03/15 02:48:10;;;;;;;27.00;12.80;;;;;;;5.39;53.36;98771.06;3165961;28;20507;-70
2023/03/15 02:49:45;;;;;;;26.55;13.95;;;;;;;5.39;53.40;98767.63;3165946;28;20420;-71
2023/03/15 02:51:20;;;;;;;28.42;12.88;;;;;;;5.28;53.33;98744.00;3166037;28;20167;-70
2023/03/15 02:52:52;;;;;;;26.75;12.45;;;;;;;5.28;53.32;98746.56;3166047;28;20192;-70
2023/03/15 02:54:23;;;;;;;24.30;12.07;;;;;;;5.28;53.36;98749.16;3165607;28;20051;-70
2023/03/15 02:55:55;;;;;;;25.60;12.35;;;;;;;5.33;53.37;98758.38;3166121;28;20507;-71
2023/03/15 02:57:26;;;;;;;24.17;12.25;;;;;;;5.31;53.29;98754.19;3165663;28;20051;-71
2023/03/15 02:58:59;;;;;;;26.02;12.48;;;;;;;5.29;53.15;98748.25;3165361;28;20134;-70
2023/03/15 03:00:31;;;;;;;;;;;;;;;5.24;53.14;98748.44;3164825;28;20056;-70
2023/03/15 03:02:02;;;;;;;22.35;11.45;;;;;;;5.21;53.24;98745.97;3156569;28;19923;-70
2023/03/15 03:03:34;;;;;;;28.75;13.65;;;;;;;5.21;53.24;98754.56;3165841;28;20504;-70
2023/03/15 03:05:07;;;;;;;25.48;12.13;;;;;;;5.20;53.35;98758.03;3165713;28;20447;-70
2023/03/15 03:06:42;;;;;;;29.40;12.87;;;;;;;5.18;53.35;98756.44;3166001;28;20047;-70
2023/03/15 03:08:15;;;;;;;27.17;13.18;;;;;;;5.16;53.47;98761.63;3165534;28;20492;-70
2023/03/15 03:09:46;;;;;;;24.77;12.55;;;;;;;5.14;53.60;98750.53;3165673;28;20059;-70
2023/03/15 03:11:18;;;;;;;27.88;13.48;;;;;;;5.08;53.49;98745.63;3165625;28;20234;-70
2023/03/15 03:12:52;;;;;;;28.80;12.32;;;;;;;4.90;53.77;98711.06;3165456;28;20051;-70
2023/03/15 03:14:24;;;;;;;22.52;11.82;;;;;;;5.12;53.70;98748.94;3165331;28;20128;-70
2023/03/15 03:15:58;;;;;;;26.25;11.00;;;;;;;5.11;53.83;98754.97;3165474;28;20295;-72
2023/03/15 03:17:29;;;;;;;25.02;12.02;;;;;;;5.02;53.76;98743.28;3165626;28;20500;-72
2023/03/15 03:19:02;;;;;;;24.17;10.75;;;;;;;4.99;53.97;98740.81;3165826;28;20153;-72
2023/03/15 03:20:33;;;;;;;21.48;10.52;;;;;;;5.03;54.02;98750.13;3165655;28;20074;-70
2023/03/15 03:22:05;;;;;;;22.20;10.18;;;;;;;4.96;54.14;98738.34;3165794;28;20548;-71
2023/03/15 03:23:37;;;;;;;20.73;10.25;;;;;;;4.97;54.19;98740.06;3165192;28;20120;-71
2023/03/15 03:25:10;;;;;;;26.27;10.68;;;;;;;4.69;54.35;98688.69;3165098;28;20066;-71
2023/03/15 03:26:44;;;;;;;22.10;9.80;;;;;;;4.84;54.43;98725.94;3165012;28;20047;-71
2023/03/15 03:28:15;;;;;;;17.60;9.88;;;;;;;4.78;54.64;98720.13;3165575;28;20093;-71
2023/03/15 03:29:50;;;;;;;21.23;9.35;;;;;;;4.83;54.87;98735.44;3165626;28;20440;-71
2023/03/15 03:31:23;;;;;;;19.33;8.68;;;;;;;4.70;55.03;98729.91;3164329;27;20112;-72
2023/03/15 03:32:55;;;;;;;20.73;8.80;;;;;;;4.74;55.25;98741.78;3165520;28;20051;-71
2023/03/15 03:34:26;;;;;;;15.48;8.88;;;;;;;4.71;55.47;98739.31;3165783;28;20055;-72
2023/03/15 03:36:02;;;;;;;16.42;7.78;;;;;;;3.63;55.71;98566.44;3165160;28;20512;-71
2023/03/15 03:37:34;;;;;;;16.58;6.85;;;;;;;4.68;55.93;98739.44;3165252;28;20074;-71
2023/03/15 03:39:06;;;;;;;19.77;6.60;;;;;;;4.67;55.98;98735.16;3165565;28;20055;-71
2023/03/15 03:40:39;;;;;;;14.55;7.30;;;;;;;4.67;56.27;98739.47;3160803;28;20129;-71
2023/03/15 03:42:11;;;;;;;13.98;7.35;;;;;;;3.74;56.28;98590.06;3165865;28;20055;-71
2023/03/15 03:43:43;;;;;;;14.57;7.00;;;;;;;4.47;56.14;98720.47;3165517;28;20600;-71
2023/03/15 03:45:16;;;;;;;24.40;8.02;;;;;;;4.66;56.47;98733.50;3165473;28;20052;-71
2023/03/15 03:46:48;;;;;;;;;;;;;;;4.62;56.17;98734.50;3165760;28;20571;-71
2023/03/15 03:48:19;;;;;;;18.13;6.95;;;;;;;4.61;56.36;98730.22;3165586;28;19924;-70
2023/03/15 03:49:51;;;;;;;19.83;6.78;;;;;;;4.49;56.99;98715.25;3165021;28;20522;-71
2023/03/15 03:51:23;;;;;;;13.60;5.80;;;;;;;4.45;57.23;98713.69;3164828;28;20055;-71
2023/03/15 03:52:55;;;;;;;15.77;7.18;;;;;;;4.56;57.31;98724.44;3165452;28;20063;-71
2023/03/15 03:54:27;;;;;;;16.02;6.35;;;;;;;4.57;57.42;98718.38;3165252;28;20051;-70
2023/03/15 03:56:02;;;;;;;13.45;5.78;;;;;;;4.58;57.52;98722.63;3165091;28;20055;-71
2023/03/15 03:57:34;;;;;;;14.38;5.40;;;;;;;4.59;57.42;98741.53;3164801;28;20040;-71
2023/03/15 03:59:06;;;;;;;13.98;6.15;;;;;;;4.60;57.65;98741.47;3165227;28;20154;-71
2023/03/15 04:00:40;;;;;;;14.73;5.90;;;;;;;4.56;57.64;98737.34;3162751;28;20500;-71
2023/03/15 04:02:12;;;;;;;14.23;5.10;;;;;;;4.62;57.88;98746.56;3165085;28;20580;-70
2023/03/15 04:03:44;;;;;;;13.75;5.25;;;;;;;4.61;57.92;98748.28;3165126;28;20498;-70
2023/03/15 04:05:16;;;;;;;12.60;5.63;;;;;;;4.62;58.04;98744.81;3165168;28;20661;-70
2023/03/15 04:06:49;;;;;;;10.55;5.30;;;;;;;4.53;57.90;98732.28;3164945;28;20055;-70
2023/03/15 04:08:21;;;;;;;10.93;5.43;;;;;;;4.59;57.96;98749.28;3165227;28;20124;-70
2023/03/15 04:09:53;;;;;;;14.20;6.05;;;;;;;4.59;58.24;98738.97;3165035;28;20539;-71
2023/03/15 04:11:25;;;;;;;11.05;5.82;;;;;;;4.09;58.35;98662.63;3164092;28;20541;-71
2023/03/15 04:12:57;;;;;;;13.45;6.18;;;;;;;4.35;58.28;98702.88;3165012;28;20051;-70
2023/03/15 04:14:29;;;;;;;22.73;7.95;;;;;;;4.55;58.41;98736.50;3165276;28;20087;-70
2023/03/15 04:16:02;;;;;;;10.57;5.70;;;;;;;4.55;58.53;98730.47;3164981;28;20055;-70
2023/03/15 04:17:34;;;;;;;;;;;;;;;4.49;58.25;98739.28;3165282;28;20128;-71
2023/03/15 04:19:07;;;;;;;12.60;5.35;;;;;;;4.47;58.46;98738.50;3164873;28;19923;-70
2023/03/15 04:20:45;;;;;;;12.02;5.32;;;;;;;4.48;58.62;98739.34;3164720;28;20057;-70
2023/03/15 04:22:17;;;;;;;9.57;4.82;;;;;;;4.47;58.88;98735.94;3164843;28;20051;-70
2023/03/15 04:23:49;;;;;;;10.13;5.07;;;;;;;4.39;59.03;98712.16;3164986;28;20063;-70
2023/03/15 04:25:25;;;;;;;11.48;5.40;;;;;;;4.45;59.41;98713.69;3160444;28;20083;-70
2023/03/15 04:26:56;;;;;;;12.85;5.40;;;;;;;4.33;59.59;98697.78;3164720;28;20734;-70
2023/03/15 04:28:29;;;;;;;12.50;5.63;;;;;;;4.27;59.74;98685.13;3164727;28;20512;-70
2023/03/15 04:30:04;;;;;;;15.68;5.53;;;;;;;4.31;59.92;98699.56;3164816;28;20059;-70
2023/03/15 04:31:37;;;;;;;11.82;4.72;;;;;;;4.27;59.89;98695.44;3164701;28;20051;-70
2023/03/15 04:33:10;;;;;;;9.50;5.25;;;;;;;4.37;59.93;98703.66;3164469;28;20063;-71
2023/03/15 04:34:42;;;;;;;11.60;5.45;;;;;;;4.36;59.92;98707.13;3164540;28;20055;-71
2023/03/15 04:36:17;;;;;;;10.60;5.50;;;;;;;4.34;59.97;98709.75;3164575;28;20170;-71
2023/03/15 04:37:50;;;;;;;15.95;5.25;;;;;;;4.34;60.09;98711.50;3164673;28;20054;-71
2023/03/15 04:39:22;;;;;;;14.52;5.68;;;;;;;4.21;60.38;98705.13;3164931;28;20051;-71
2023/03/15 04:40:54;;;;;;;12.75;6.03;;;;;;;4.18;60.38;98700.94;3164754;28;20051;-71
2023/03/15 04:42:26;;;;;;;15.68;6.03;;;;;;;4.30;60.79;98722.81;3164386;28;20862;-70
2023/03/15 04:43:58;;;;;;;15.05;5.85;;;;;;;4.26;61.06;98722.09;3164743;28;20135;-71
2023/03/15 04:45:31;;;;;;;14.38;5.88;;;;;;;4.25;61.62;98722.16;3164772;28;20071;-71
2023/03/15 04:47:04;;;;;;;11.63;5.47;;;;;;;4.23;61.68;98723.94;3159295;28;20059;-71
2023/03/15 04:48:36;;;;;;;;;;;;;;;4.18;61.22;98736.16;3165335;28;20047;-71
2023/03/15 04:50:08;;;;;;;15.38;5.72;;;;;;;4.17;61.53;98730.19;3164798;28;19935;-71
2023/03/15 04:51:40;;;;;;;13.63;6.13;;;;;;;4.14;62.09;98721.69;3164615;28;20603;-70
2023/03/15 04:53:11;;;;;;;10.82;5.45;;;;;;;4.15;62.25;98724.22;3164635;28;20470;-70
2023/03/15 04:54:43;;;;;;;15.00;5.80;;;;;;;4.07;62.32;98708.19;3164965;28;20113;-70
2023/03/15 04:56:15;;;;;;;14.75;5.75;;;;;;;4.15;62.25;98725.97;3164598;28;20531;-70
2023/03/15 04:57:47;;;;;;;19.42;6.22;;;;;;;4.16;62.11;98727.63;3164580;28;20043;-70
2023/03/15 04:59:19;;;;;;;12.85;5.45;;;;;;;4.16;62.52;98728.47;3164434;28;20481;-70
2023/03/15 05:00:53;;;;;;;18.77;6.70;;;;;;;4.13;62.72;98732.91;3159805;28;20562;-70
2023/03/15 05:02:26;;;;;;;17.42;5.45;;;;;;;4.10;62.81;98733.84;3160401;28;20051;-70
2023/03/15 05:03:58;;;;;;;;;;;;;;;4.04;62.36;98732.34;3165055;28;20532;-70
2023/03/15 05:05:33;;;;;;;14.23;5.38;;;;;;;4.05;62.56;98733.16;3164370;28;19927;-70
2023/03/15 05:07:05;;;;;;;14.32;5.53;;;;;;;4.06;62.64;98727.13;3164032;28;20051;-70
2023/03/15 05:08:37;;;;;;;11.75;5.88;;;;;;;4.04;63.06;98721.19;3164108;28;20048;-72
2023/03/15 05:10:10;;;;;;;18.75;6.20;;;;;;;3.96;63.01;98718.88;3164229;28;20100;-70
2023/03/15 05:11:42;;;;;;;14.65;5.82;;;;;;;4.05;62.98;98728.00;3164584;28;20135;-71
2023/03/15 05:13:14;;;;;;;13.63;5.32;;;;;;;3.98;63.15;98713.69;3163742;28;20051;-70
2023/03/15 05:14:45;;;;;;;13.95;6.10;;;;;;;4.03;63.55;98729.81;3164366;28;20179;-69
2023/03/15 05:16:17;;;;;;;9.88;5.45;;;;;;;4.03;63.43;98734.97;3164520;28;20163;-71
2023/03/15 05:17:53;;;;;;;13.27;6.25;;;;;;;3.87;63.42;98712.34;3163984;28;20059;-71
2023/03/15 05:19:26;;;;;;;12.77;6.00;;;;;;;3.98;63.52;98735.13;3164540;28;20048;-71
2023/03/15 05:20:58;;;;;;;12.38;5.57;;;;;;;3.97;63.51;98730.88;3164280;28;20236;-71
2023/03/15 05:22:29;;;;;;;11.18;5.57;;;;;;;4.06;63.53;98740.03;3164418;28;20110;-71
2023/03/15 05:24:02;;;;;;;11.30;5.93;;;;;;;4.05;63.56;98743.47;3164098;28;20505;-70
2023/03/15 05:25:35;;;;;;;16.70;7.30;;;;;;;4.04;63.58;98746.94;3163919;28;20126;-70
2023/03/15 05:27:07;;;;;;;14.10;6.07;;;;;;;4.03;63.73;98747.88;3163865;28;20552;-70
2023/03/15 05:28:39;;;;;;;14.63;6.30;;;;;;;4.01;64.03;98745.31;3164210;28;20073;-70
2023/03/15 05:30:13;;;;;;;14.50;5.95;;;;;;;3.99;64.10;98744.53;3163971;28;20047;-70
2023/03/15 05:31:44;;;;;;;13.02;5.97;;;;;;;3.93;64.19;98736.19;3163828;28;20134;-70
2023/03/15 05:33:17;;;;;;;16.30;5.88;;;;;;;3.99;64.36;98741.13;3164245;28;20051;-70
2023/03/15 05:34:49;;;;;;;10.60;6.13;;;;;;;3.96;64.48;98736.06;3163865;28;20054;-71
2023/03/15 05:36:21;;;;;;;13.10;6.05;;;;;;;3.92;64.56;98739.66;3164416;28;20061;-72
2023/03/15 05:37:54;;;;;;;18.73;6.57;;;;;;;3.84;64.54;98725.31;3163790;28;20857;-73
2023/03/15 05:39:26;;;;;;;12.48;6.63;;;;;;;3.75;64.37;98709.34;3164296;28;20043;-72
2023/03/15 05:41:00;;;;;;;13.50;6.70;;;;;;;3.95;64.43;98732.66;3164072;28;20474;-72
2023/03/15 05:42:31;;;;;;;22.17;7.95;;;;;;;3.96;64.32;98736.91;3164005;28;20062;-75
2023/03/15 05:44:04;;;;;;;15.90;6.35;;;;;;;3.87;64.06;98709.78;3164211;28;20146;-76
2023/03/15 05:45:36;;;;;;;16.08;6.90;;;;;;;3.35;64.22;98629.19;3164028;28;20096;-76
2023/03/15 05:47:08;;;;;;;15.38;6.38;;;;;;;4.04;64.03;98727.19;3163487;28;20135;-76
2023/03/15 05:48:42;;;;;;;18.13;6.80;;;;;;;4.06;64.01;98727.97;3164215;28;20059;-76
2023/03/15 05:50:14;;;;;;;13.07;6.40;;;;;;;4.09;63.96;98720.13;3163965;28;20056;-76
2023/03/15 05:51:45;;;;;;;15.85;6.35;;;;;;;3.97;63.92;98696.56;3164158;28;20066;-76
2023/03/15 05:53:17;;;;;;;18.58;6.88;;;;;;;4.15;63.71;98728.53;3163861;28;20051;-76
2023/03/15 05:54:49;;;;;;;15.20;6.95;;;;;;;4.10;63.67;98713.25;3164156;28;20515;-75
2023/03/15 05:56:20;;;;;;;21.42;6.68;;;;;;;4.19;63.69;98728.38;3151545;28;20056;-73
2023/03/15 05:57:52;;;;;;;13.57;7.00;;;;;;;4.04;63.73;98696.25;3163363;28;20189;-71
2023/03/15 05:59:24;;;;;;;20.17;7.20;;;;;;;4.22;63.63;98717.94;3163559;28;20051;-69
2023/03/15 06:00:56;;;;;;;16.00;6.57;;;;;;;4.22;63.77;98719.69;3159205;28;20451;-73
2023/03/15 06:02:27;;;;;;;19.65;7.20;;;;;;;4.14;63.91;98713.97;3160707;28;20462;-72
2023/03/15 06:04:00;;;;;;;13.80;7.50;;;;;;;3.62;63.93;98631.69;3162895;28;20048;-71
2023/03/15 06:05:32;;;;;;;16.40;6.95;;;;;;;4.16;63.94;98719.91;3163802;28;20127;-71
2023/03/15 06:07:04;;;;;;;19.25;7.00;;;;;;;4.19;64.40;98730.09;3163807;28;20051;-71
2023/03/15 06:08:36;;;;;;;15.63;7.63;;;;;;;4.21;64.49;98730.91;3164170;28;20063;-74
2023/03/15 06:10:10;;;;;;;16.75;7.18;;;;;;;4.23;64.63;98732.53;3163521;28;20532;-70
2023/03/15 06:11:41;;;;;;;;;;;;;;;4.27;64.25;98735.81;3164478;28;20104;-67
2023/03/15 06:13:13;;;;;;;15.88;7.63;;;;;;;4.32;64.68;98742.50;3163802;28;19923;-74
2023/03/15 06:14:44;;;;;;;16.30;7.53;;;;;;;4.40;64.55;98733.63;3165771;28;20044;-78
2023/03/15 06:16:16;;;;;;;17.98;7.68;;;;;;;4.28;64.39;98694.53;3167022;28;20116;-73
2023/03/15 06:17:49;;;;;;;17.00;8.10;;;;;;;4.61;64.30;98730.22;3166210;28;20066;-68
2023/03/15 06:19:23;;;;;;;17.75;7.90;;;;;;;4.06;64.07;98626.66;3166450;28;20048;-73
2023/03/15 06:20:54;;;;;;;20.42;7.40;;;;;;;4.65;64.09;98707.78;3166591;28;20074;-70
2023/03/15 06:22:26;;;;;;;17.70;7.55;;;;;;;4.65;63.86;98689.72;3165814;28;20455;-73
2023/03/15 06:23:58;;;;;;;43.80;16.35;;;;;;;4.54;63.62;98656.59;3166303;28;20067;-73
2023/03/15 06:25:30;;;;;;;21.75;10.75;;;;;;;5.09;63.51;98726.66;3165942;28;20644;-76
2023/03/15 06:27:02;;;;;;;36.65;16.48;;;;;;;5.15;63.23;98729.00;3162220;27;20067;-73
2023/03/15 06:28:34;;;;;;;17.98;8.50;;;;;;;5.21;63.24;98730.50;3166478;28;20059;-72
2023/03/15 06:30:08;;;;;;;39.80;17.85;;;;;;;5.27;63.02;98717.34;3165964;28;20047;-75
2023/03/15 06:31:40;;;;;;;27.15;12.60;;;;;;;5.24;62.86;98701.97;3166392;28;20051;-68
2023/03/15 06:33:12;;;;;;;15.23;8.00;;;;;;;5.28;62.70;98689.78;3165634;28;20047;-69
2023/03/15 06:34:45;;;;;;;22.77;7.95;;;;;;;5.48;62.55;98719.03;3165815;28;20541;-70
2023/03/15 06:36:17;;;;;;;18.20;8.73;;;;;;;5.55;62.59;98721.34;3166031;28;20067;-68
2023/03/15 06:37:51;;;;;;;11.60;6.35;;;;;;;5.57;62.20;98717.81;3166513;28;20132;-68
2023/03/15 06:39:23;;;;;;;14.73;7.25;;;;;;;5.61;62.11;98719.34;3166048;28;20657;-70
2023/03/15 06:40:57;;;;;;;16.50;7.22;;;;;;;5.73;62.05;98722.31;3165850;28;20287;-72
2023/03/15 06:42:28;;;;;;;;;;;;;;;5.90;61.90;98725.03;3166821;27;20083;-75
2023/03/15 06:44:00;;;;;;;14.55;6.60;;;;;;;6.22;61.94;98728.81;3166085;28;20007;-72
2023/03/15 06:45:32;;;;;;;12.43;7.07;;;;;;;6.51;61.05;98724.91;3166355;28;20059;-78
2023/03/15 06:47:05;;;;;;;13.40;7.03;;;;;;;6.75;60.33;98733.28;3166116;28;20491;-76
2023/03/15 06:48:38;;;;;;;19.35;7.88;;;;;;;6.85;59.76;98712.97;3166466;28;20095;-68
2023/03/15 06:50:12;;;;;;;16.95;7.60;;;;;;;7.10;59.09;98722.16;3157284;28;20561;-70
2023/03/15 06:51:44;;;;;;;15.73;7.28;;;;;;;7.22;58.64;98726.78;3166177;28;20051;-69
2023/03/15 06:53:16;;;;;;;21.45;8.65;;;;;;;7.32;58.16;98733.16;3166023;28;20063;-74
2023/03/15 06:54:48;;;;;;;17.60;7.88;;;;;;;7.55;57.96;98739.81;3165733;28;20051;-72
2023/03/15 06:56:20;;;;;;;14.20;7.25;;;;;;;7.84;57.45;98734.88;3166096;28;20481;-72
2023/03/15 06:57:52;;;;;;;19.08;8.32;;;;;;;8.15;56.69;98727.22;3166136;28;20051;-70
2023/03/15 06:59:24;;;;;;;18.50;7.28;;;;;;;8.36;55.74;98730.44;3165958;28;20051;-73
2023/03/15 07:00:56;;;;;;;19.95;7.82;;;;;;;8.72;55.14;98703.44;3165898;28;20039;-75
2023/03/15 07:02:32;;;;;;;16.95;7.18;;;;;;;9.22;54.17;98719.72;3165718;27;20502;-76
2023/03/15 07:04:04;;;;;;;14.25;7.43;;;;;;;9.62;53.36;98718.28;3165365;28;20051;-74
2023/03/15 07:05:37;;;;;;;21.52;7.85;;;;;;;10.03;52.34;98717.59;3165422;28;20550;-68
2023/03/15 07:07:10;;;;;;;18.80;7.43;;;;;;;10.29;51.13;98715.19;3163790;28;20051;-70
2023/03/15 07:08:41;;;;;;;16.25;7.60;;;;;;;10.33;50.92;98717.50;3165154;28;20051;-69
2023/03/15 07:10:13;;;;;;;14.75;7.63;;;;;;;10.37;50.33;98713.78;3165867;28;20101;-76
2023/03/15 07:11:45;;;;;;;17.48;7.88;;;;;;;10.33;50.04;98711.47;3165973;28;20055;-76
2023/03/15 07:13:18;;;;;;;15.50;7.15;;;;;;;10.04;49.83;98680.22;3166025;28;20065;-74
2023/03/15 07:14:50;;;;;;;12.85;7.40;;;;;;;10.11;49.77;98712.72;3165070;28;20105;-77
2023/03/15 07:16:23;;;;;;;11.65;6.85;;;;;;;9.92;49.59;98717.38;3166032;28;20055;-75